Bridlington, United Kingdom
Current Conditions -  °F | °C
As of 5:50 PM on Thursday 30 Oct 2014 (Local Time) from EGXV Reporting Station
Overcast Overcast  
Wind Chill: 61°   Ceiling: 4200
Heat Index: 61°   Visibility: 6mi
Dew Point: 59°   Wind: 6mph
Humidity: 94%   Direction: 180°S
Pressure: 29.97"   Gusts: NA
Location:  54.08°N, 0.19°W
Report Text: EGXV 301750Z AUTO 18005KT 9999 OVC042/// 16/15 Q1015
Loading
Personal Weather Stations






























Interactive Weather Map
Tropical Storm Tracking
New forecast layout! Learn more

10-Day Weather Forecast

Advertisements
Track Severe Weather on mobile